Time;durP1;ratioP1;P1;durP2;ratioP2;P2;SDS_P1;SDS_P2;PMS_P1;PMS_P2;Temp;Humidity;BMP_temperature;BMP_pressure;BME280_temperature;BME280_humidity;BME280_pressure;Samples;Min_cycle;Max_cycle;Signal;HPM_P1;HPM_P2
2022/07/26 00:01:55;;;;;;;13.00;6.00;;;;;;;;;;5036760;28;20053;-70
2022/07/26 00:04:21;;;;;;;14.57;5.95;;;;;;;;;;5037086;28;20523;-70
2022/07/26 00:06:47;;;;;;;10.68;5.72;;;;;;;;;;5036975;28;20056;-72
2022/07/26 00:09:12;;;;;;;7.20;5.53;;;;;;;;;;5034554;28;20061;-70
2022/07/26 00:11:38;;;;;;;9.73;6.63;;;;;;;;;;5035498;28;20049;-72
2022/07/26 00:14:05;;;;;;;10.93;6.05;;;;;;;;;;5036129;28;20049;-71
2022/07/26 00:16:32;;;;;;;15.65;5.88;;;;;;;;;;5035365;28;20068;-71
2022/07/26 00:18:58;;;;;;;13.52;6.45;;;;;;;;;;5032501;28;20056;-71
2022/07/26 00:21:23;;;;;;;13.50;6.50;;;;;;;;;;5032818;28;20053;-74
2022/07/26 00:23:49;;;;;;;9.98;5.25;;;;;;;;;;5032694;28;20057;-72
2022/07/26 00:26:15;;;;;;;14.07;6.57;;;;;;;;;;5033243;28;20053;-73
2022/07/26 00:28:40;;;;;;;9.82;5.72;;;;;;;;;;5032693;28;20067;-71
2022/07/26 00:31:07;;;;;;;9.60;5.10;;;;;;;;;;5032978;28;20041;-71
2022/07/26 00:33:33;;;;;;;7.90;6.05;;;;;;;;;;5033855;28;20050;-71
2022/07/26 00:35:59;;;;;;;10.73;5.22;;;;;;;;;;5033615;28;20045;-72
2022/07/26 00:38:24;;;;;;;8.90;5.90;;;;;;;;;;5033764;28;20488;-72
2022/07/26 00:40:50;;;;;;;11.07;4.95;;;;;;;;;;5033429;28;20056;-73
2022/07/26 00:43:16;;;;;;;7.45;5.55;;;;;;;;;;5034563;28;20045;-72
2022/07/26 00:45:41;;;;;;;8.25;5.47;;;;;;;;;;5033449;28;20057;-70
2022/07/26 00:48:07;;;;;;;9.65;5.13;;;;;;;;;;5032435;28;20137;-71
2022/07/26 00:50:32;;;;;;;9.95;5.07;;;;;;;;;;5031630;28;20065;-72
2022/07/26 00:52:58;;;;;;;9.43;5.20;;;;;;;;;;5031259;28;20064;-71
2022/07/26 00:55:23;;;;;;;7.10;4.72;;;;;;;;;;5032756;28;20053;-72
2022/07/26 00:57:49;;;;;;;11.48;5.07;;;;;;;;;;5031627;28;20045;-71
2022/07/26 01:00:18;;;;;;;8.63;4.03;;;;;;;;;;5034955;28;20143;-71
2022/07/26 01:02:44;;;;;;;5.93;4.07;;;;;;;;;;5030683;28;20077;-70
2022/07/26 01:05:09;;;;;;;6.57;4.50;;;;;;;;;;5033114;28;20073;-71
2022/07/26 01:07:37;;;;;;;7.43;4.45;;;;;;;;;;5029126;28;20128;-70
2022/07/26 01:10:11;;;;;;;7.05;3.72;;;;;;;;;;5033637;28;20118;-71
2022/07/26 01:12:37;;;;;;;4.63;3.15;;;;;;;;;;5032771;28;20076;-70
2022/07/26 01:15:03;;;;;;;5.30;3.97;;;;;;;;;;5033768;28;20045;-72
2022/07/26 01:17:29;;;;;;;6.72;4.30;;;;;;;;;;5034982;28;20069;-71
2022/07/26 01:19:54;;;;;;;5.75;3.85;;;;;;;;;;5034654;28;20052;-70
2022/07/26 01:22:19;;;;;;;4.85;3.83;;;;;;;;;;5036082;28;20040;-71
2022/07/26 01:24:45;;;;;;;7.95;4.10;;;;;;;;;;5035028;28;20061;-70
2022/07/26 01:27:10;;;;;;;7.10;3.92;;;;;;;;;;5032698;28;20077;-71
2022/07/26 01:29:36;;;;;;;5.72;3.90;;;;;;;;;;5034905;28;20044;-71
2022/07/26 01:32:03;;;;;;;3.95;3.30;;;;;;;;;;5031986;28;20048;-74
2022/07/26 01:34:29;;;;;;;7.13;4.30;;;;;;;;;;5033493;28;20530;-71
2022/07/26 01:36:55;;;;;;;6.03;4.03;;;;;;;;;;5034416;28;20076;-73
2022/07/26 01:39:21;;;;;;;6.38;4.35;;;;;;;;;;5035138;28;20044;-71
2022/07/26 01:41:46;;;;;;;3.83;3.42;;;;;;;;;;5033431;28;20170;-71
2022/07/26 01:44:12;;;;;;;6.00;3.95;;;;;;;;;;5029768;28;20058;-72
2022/07/26 01:46:39;;;;;;;6.35;3.70;;;;;;;;;;5032349;28;20073;-72
2022/07/26 01:49:07;;;;;;;4.55;3.35;;;;;;;;;;5023440;28;20837;-72
2022/07/26 01:51:33;;;;;;;6.45;3.78;;;;;;;;;;5029388;28;20052;-72
2022/07/26 01:53:59;;;;;;;8.23;4.15;;;;;;;;;;5040000;28;20045;-72
2022/07/26 01:56:24;;;;;;;6.82;4.35;;;;;;;;;;5036684;28;20088;-72
2022/07/26 01:58:50;;;;;;;4.30;3.47;;;;;;;;;;5032866;28;20190;-71
2022/07/26 02:01:15;;;;;;;8.57;4.15;;;;;;;;;;5033645;28;20178;-71
2022/07/26 02:03:40;;;;;;;5.80;3.72;;;;;;;;;;5029954;28;20056;-72
2022/07/26 02:06:06;;;;;;;7.63;4.38;;;;;;;;;;5040393;28;20095;-73
2022/07/26 02:08:32;;;;;;;5.50;4.03;;;;;;;;;;5032009;28;20045;-71
2022/07/26 02:11:00;;;;;;;6.57;4.32;;;;;;;;;;5031948;28;20053;-73
2022/07/26 02:13:38;;;;;;;8.80;4.07;;;;;;;;;;5029769;28;20147;-71
2022/07/26 02:16:07;;;;;;;8.15;4.40;;;;;;;;;;5028569;28;20392;-71
2022/07/26 02:18:32;;;;;;;4.43;3.40;;;;;;;;;;5033290;28;20111;-71
2022/07/26 02:21:00;;;;;;;5.90;3.85;;;;;;;;;;5032984;28;20061;-71
2022/07/26 02:23:26;;;;;;;6.65;3.67;;;;;;;;;;5033209;28;20049;-72
2022/07/26 02:25:52;;;;;;;5.97;3.70;;;;;;;;;;5030702;28;20045;-71
2022/07/26 02:28:17;;;;;;;6.05;3.60;;;;;;;;;;5021444;28;20104;-71
2022/07/26 02:30:44;;;;;;;9.23;3.55;;;;;;;;;;5031372;28;20045;-72
2022/07/26 02:33:10;;;;;;;4.50;3.47;;;;;;;;;;5028846;28;20487;-70
2022/07/26 02:35:35;;;;;;;3.92;2.85;;;;;;;;;;5025436;28;20064;-72
2022/07/26 02:38:08;;;;;;;4.80;3.60;;;;;;;;;;5028416;28;20049;-72
2022/07/26 02:40:35;;;;;;;4.88;3.10;;;;;;;;;;5022188;28;20063;-73
2022/07/26 02:43:01;;;;;;;5.10;3.70;;;;;;;;;;5041853;28;20045;-73
2022/07/26 02:45:27;;;;;;;5.35;3.47;;;;;;;;;;5041497;28;20554;-73
2022/07/26 02:47:54;;;;;;;6.88;3.85;;;;;;;;;;5041366;28;20083;-73
2022/07/26 02:50:22;;;;;;;7.72;3.83;;;;;;;;;;5038116;28;20064;-72
2022/07/26 02:52:48;;;;;;;6.88;3.47;;;;;;;;;;5042251;28;20423;-72
2022/07/26 02:55:19;;;;;;;5.60;3.75;;;;;;;;;;5043155;28;20068;-71
2022/07/26 02:57:45;;;;;;;3.88;3.50;;;;;;;;;;5037200;28;20130;-72
2022/07/26 03:00:12;;;;;;;5.68;3.97;;;;;;;;;;5031771;28;20049;-70
2022/07/26 03:02:38;;;;;;;8.15;3.85;;;;;;;;;;5033189;28;20051;-71
2022/07/26 03:05:05;;;;;;;7.95;3.80;;;;;;;;;;5041509;28;20114;-73
2022/07/26 03:07:31;;;;;;;5.40;3.67;;;;;;;;;;5036643;28;20074;-72
2022/07/26 03:09:57;;;;;;;5.38;3.33;;;;;;;;;;5033771;28;20053;-71
2022/07/26 03:12:22;;;;;;;8.85;3.83;;;;;;;;;;5024207;28;20102;-72
2022/07/26 03:14:48;;;;;;;8.77;3.78;;;;;;;;;;5039037;28;20049;-73
2022/07/26 03:17:13;;;;;;;5.20;3.80;;;;;;;;;;5041599;28;20044;-71
2022/07/26 03:19:38;;;;;;;7.85;3.78;;;;;;;;;;5041629;28;20048;-71
2022/07/26 03:22:04;;;;;;;6.70;3.80;;;;;;;;;;5042782;28;20179;-71
2022/07/26 03:24:29;;;;;;;4.80;3.80;;;;;;;;;;5042498;28;20053;-71
2022/07/26 03:26:54;;;;;;;6.85;3.88;;;;;;;;;;5042845;28;20187;-71
2022/07/26 03:29:20;;;;;;;6.05;3.83;;;;;;;;;;5042128;28;20048;-71
2022/07/26 03:31:45;;;;;;;6.45;3.90;;;;;;;;;;5034000;28;20064;-71
2022/07/26 03:34:10;;;;;;;4.25;3.40;;;;;;;;;;5037344;28;20068;-71
2022/07/26 03:36:36;;;;;;;8.80;4.35;;;;;;;;;;5033395;28;20076;-72
2022/07/26 03:39:01;;;;;;;4.15;2.90;;;;;;;;;;5035021;28;20104;-70
2022/07/26 03:41:30;;;;;;;7.93;3.15;;;;;;;;;;5034383;28;20411;-73
2022/07/26 03:43:56;;;;;;;4.43;3.15;;;;;;;;;;5032303;28;20419;-69
2022/07/26 03:46:21;;;;;;;3.38;2.70;;;;;;;;;;5035499;28;20494;-71
2022/07/26 03:48:46;;;;;;;3.65;2.80;;;;;;;;;;5023381;28;20053;-70
2022/07/26 03:51:12;;;;;;;2.88;2.33;;;;;;;;;;5028226;28;20096;-71
2022/07/26 03:53:37;;;;;;;5.20;2.80;;;;;;;;;;5032653;28;20045;-71
2022/07/26 03:58:47;;;;;;;5.43;3.15;;;;;;;;;;5028339;28;20056;-71
2022/07/26 04:01:12;;;;;;;5.03;3.33;;;;;;;;;;5030353;28;20061;-72
2022/07/26 04:03:37;;;;;;;6.88;2.70;;;;;;;;;;5039799;28;20152;-72
2022/07/26 04:06:03;;;;;;;7.45;2.80;;;;;;;;;;5035104;28;20128;-72
2022/07/26 04:08:29;;;;;;;5.63;2.90;;;;;;;;;;5039656;28;20075;-72
2022/07/26 04:10:54;;;;;;;7.25;2.75;;;;;;;;;;5041748;28;20041;-72
2022/07/26 04:13:22;;;;;;;6.13;3.00;;;;;;;;;;5024664;28;20071;-72
2022/07/26 04:15:48;;;;;;;7.63;2.50;;;;;;;;;;5038607;28;20052;-72
2022/07/26 04:18:13;;;;;;;5.45;2.60;;;;;;;;;;5041524;28;20044;-72
2022/07/26 04:20:39;;;;;;;9.77;3.55;;;;;;;;;;5038527;28;20041;-71
2022/07/26 04:23:05;;;;;;;4.88;3.05;;;;;;;;;;5041034;28;20056;-71
2022/07/26 04:25:30;;;;;;;7.25;3.45;;;;;;;;;;5036435;28;20055;-71
2022/07/26 04:27:56;;;;;;;5.25;2.70;;;;;;;;;;5036686;28;20049;-73
2022/07/26 04:30:21;;;;;;;4.65;2.70;;;;;;;;;;5027276;28;20041;-70
2022/07/26 04:32:47;;;;;;;7.43;3.08;;;;;;;;;;5041105;28;20048;-71
2022/07/26 04:35:12;;;;;;;4.65;2.70;;;;;;;;;;5032887;28;20053;-70
2022/07/26 04:37:40;;;;;;;4.97;2.72;;;;;;;;;;5037607;28;20111;-73
2022/07/26 04:40:06;;;;;;;6.18;2.97;;;;;;;;;;5033094;28;20510;-71
2022/07/26 04:42:31;;;;;;;5.00;2.97;;;;;;;;;;5040534;28;20515;-70
2022/07/26 04:44:57;;;;;;;8.43;2.70;;;;;;;;;;5036758;28;20053;-71
2022/07/26 04:47:22;;;;;;;11.23;3.38;;;;;;;;;;5037002;28;20132;-71
2022/07/26 04:49:47;;;;;;;5.82;3.03;;;;;;;;;;5040356;28;20044;-71
2022/07/26 04:52:13;;;;;;;6.47;2.95;;;;;;;;;;5032377;28;20519;-71
2022/07/26 04:54:38;;;;;;;8.07;2.80;;;;;;;;;;5026455;28;20114;-71
2022/07/26 04:57:04;;;;;;;5.45;2.70;;;;;;;;;;5034013;28;20091;-72
2022/07/26 04:59:29;;;;;;;9.57;2.92;;;;;;;;;;5030270;28;20549;-72
2022/07/26 05:01:55;;;;;;;4.97;2.75;;;;;;;;;;5030508;28;20399;-72
2022/07/26 05:04:20;;;;;;;5.60;2.33;;;;;;;;;;5037434;28;20100;-72
2022/07/26 05:06:45;;;;;;;4.13;2.78;;;;;;;;;;5036382;28;20053;-71
2022/07/26 05:09:11;;;;;;;8.98;2.83;;;;;;;;;;5031384;28;20040;-71
2022/07/26 05:11:39;;;;;;;6.75;2.55;;;;;;;;;;5023019;28;20095;-72
2022/07/26 05:14:05;;;;;;;9.45;3.00;;;;;;;;;;5030241;28;20500;-72
2022/07/26 05:16:30;;;;;;;7.13;3.00;;;;;;;;;;5028914;28;20051;-72
2022/07/26 05:18:56;;;;;;;5.88;2.70;;;;;;;;;;5029247;28;20079;-72
2022/07/26 05:21:21;;;;;;;4.47;2.53;;;;;;;;;;5032800;28;20040;-72
2022/07/26 05:23:47;;;;;;;5.13;2.25;;;;;;;;;;5028469;28;20777;-72
2022/07/26 05:26:12;;;;;;;5.72;2.30;;;;;;;;;;5029436;28;20127;-72
2022/07/26 05:28:38;;;;;;;2.63;2.38;;;;;;;;;;5029998;28;20063;-72
2022/07/26 05:31:04;;;;;;;5.00;2.35;;;;;;;;;;5035843;28;20068;-72
2022/07/26 05:33:29;;;;;;;4.50;2.30;;;;;;;;;;5023651;28;20054;-74
2022/07/26 05:35:55;;;;;;;3.55;2.60;;;;;;;;;;5026860;28;20439;-74
2022/07/26 05:38:20;;;;;;;5.28;2.22;;;;;;;;;;4997048;28;20558;-72
2022/07/26 05:40:46;;;;;;;6.55;2.35;;;;;;;;;;4981881;28;20065;-72
2022/07/26 05:43:11;;;;;;;3.33;2.30;;;;;;;;;;4997376;28;20073;-72
2022/07/26 05:45:37;;;;;;;5.35;2.60;;;;;;;;;;4996786;28;20167;-72
2022/07/26 05:48:02;;;;;;;3.60;2.47;;;;;;;;;;4997913;28;20976;-72
2022/07/26 05:50:28;;;;;;;4.47;2.35;;;;;;;;;;4998045;28;20074;-72
2022/07/26 05:52:53;;;;;;;3.78;2.50;;;;;;;;;;4996597;28;20143;-72
2022/07/26 05:55:19;;;;;;;5.80;2.33;;;;;;;;;;4997172;28;20123;-71
2022/07/26 05:57:46;;;;;;;6.18;2.65;;;;;;;;;;4996450;28;20133;-71
2022/07/26 06:00:12;;;;;;;5.57;2.25;;;;;;;;;;4997711;28;20049;-71
2022/07/26 06:02:39;;;;;;;3.60;2.33;;;;;;;;;;5010506;28;21030;-73
2022/07/26 06:05:05;;;;;;;2.25;2.13;;;;;;;;;;5040266;28;20058;-73
2022/07/26 06:07:31;;;;;;;4.60;2.70;;;;;;;;;;5029295;28;20048;-73
2022/07/26 06:09:56;;;;;;;6.13;2.10;;;;;;;;;;5038971;28;20052;-72
2022/07/26 06:12:22;;;;;;;5.55;2.53;;;;;;;;;;5030648;28;20410;-72
2022/07/26 06:14:47;;;;;;;11.82;2.42;;;;;;;;;;5033967;28;20147;-72
2022/07/26 06:17:13;;;;;;;4.10;2.30;;;;;;;;;;5029806;28;20042;-76
2022/07/26 06:19:38;;;;;;;5.00;2.35;;;;;;;;;;5021695;28;20518;-72
2022/07/26 06:22:03;;;;;;;6.35;2.70;;;;;;;;;;5038972;28;20094;-73
2022/07/26 06:24:29;;;;;;;5.88;2.80;;;;;;;;;;5034211;28;20144;-74
2022/07/26 06:26:55;;;;;;;4.32;2.10;;;;;;;;;;5007485;28;20080;-76
2022/07/26 06:29:21;;;;;;;6.43;2.22;;;;;;;;;;5022570;28;20407;-72
2022/07/26 06:31:47;;;;;;;2.15;1.95;;;;;;;;;;5023369;28;20504;-74
2022/07/26 06:34:13;;;;;;;4.22;2.33;;;;;;;;;;5035285;28;20049;-72
2022/07/26 06:36:38;;;;;;;2.40;2.00;;;;;;;;;;5033301;28;20041;-73
2022/07/26 06:39:04;;;;;;;3.20;2.28;;;;;;;;;;5020356;28;20049;-74
2022/07/26 06:41:29;;;;;;;6.10;2.35;;;;;;;;;;5030731;28;20080;-75
2022/07/26 06:43:55;;;;;;;5.43;2.40;;;;;;;;;;5037251;28;20048;-73
2022/07/26 06:46:20;;;;;;;4.90;2.25;;;;;;;;;;5030565;28;20052;-74
2022/07/26 06:48:47;;;;;;;3.15;2.33;;;;;;;;;;5037010;28;20120;-74
2022/07/26 06:51:13;;;;;;;5.03;2.35;;;;;;;;;;5018696;28;20045;-73
2022/07/26 06:53:38;;;;;;;4.63;2.35;;;;;;;;;;5030545;28;20056;-72
2022/07/26 06:56:04;;;;;;;5.13;2.80;;;;;;;;;;5034447;28;20098;-73
2022/07/26 06:58:30;;;;;;;7.47;2.88;;;;;;;;;;5031269;28;20059;-73
2022/07/26 07:00:55;;;;;;;4.05;2.78;;;;;;;;;;5037240;28;20136;-71
2022/07/26 07:03:21;;;;;;;6.85;3.13;;;;;;;;;;5035030;28;20590;-72
2022/07/26 07:05:46;;;;;;;3.63;2.80;;;;;;;;;;5038297;28;20052;-72
2022/07/26 07:08:13;;;;;;;4.70;2.58;;;;;;;;;;5035217;28;20079;-71
2022/07/26 07:10:38;;;;;;;6.70;2.63;;;;;;;;;;5033406;28;20141;-70
2022/07/26 07:13:04;;;;;;;4.30;2.78;;;;;;;;;;5033928;28;20147;-71
2022/07/26 07:15:29;;;;;;;3.75;2.30;;;;;;;;;;5021783;28;20094;-73
2022/07/26 07:17:54;;;;;;;2.95;2.40;;;;;;;;;;5038662;28;20466;-72
2022/07/26 07:20:20;;;;;;;4.03;2.40;;;;;;;;;;5031697;28;20147;-72
2022/07/26 07:22:45;;;;;;;3.53;2.30;;;;;;;;;;5037773;28;20515;-72
2022/07/26 07:25:11;;;;;;;3.15;2.40;;;;;;;;;;5038900;28;20149;-72
2022/07/26 07:27:36;;;;;;;4.72;2.70;;;;;;;;;;5028421;28;20045;-73
2022/07/26 07:30:03;;;;;;;4.15;2.20;;;;;;;;;;5041495;28;20776;-74
2022/07/26 07:32:29;;;;;;;2.92;2.30;;;;;;;;;;5032669;28;20041;-73
2022/07/26 07:34:54;;;;;;;5.93;2.30;;;;;;;;;;5042387;28;20780;-74
2022/07/26 07:37:20;;;;;;;6.25;2.35;;;;;;;;;;5042448;28;20235;-71
2022/07/26 07:39:45;;;;;;;4.53;2.30;;;;;;;;;;5032523;28;20045;-73
2022/07/26 07:42:11;;;;;;;3.80;2.00;;;;;;;;;;5031395;28;20083;-70
2022/07/26 07:44:36;;;;;;;3.10;1.90;;;;;;;;;;5027131;28;20069;-71
2022/07/26 07:47:02;;;;;;;3.45;2.20;;;;;;;;;;5033384;28;20045;-71
2022/07/26 07:49:27;;;;;;;2.45;2.25;;;;;;;;;;5039837;28;20045;-72
2022/07/26 07:51:53;;;;;;;4.15;2.25;;;;;;;;;;5038268;28;20089;-73
2022/07/26 07:54:21;;;;;;;10.25;2.47;;;;;;;;;;5036060;28;20396;-75
2022/07/26 07:56:47;;;;;;;6.53;2.53;;;;;;;;;;5039275;28;20068;-74
2022/07/26 07:59:12;;;;;;;5.05;2.47;;;;;;;;;;5032779;28;20045;-73
2022/07/26 08:01:37;;;;;;;4.82;2.75;;;;;;;;;;5030091;28;20065;-71
2022/07/26 08:04:03;;;;;;;5.63;2.70;;;;;;;;;;5038968;28;20095;-70
2022/07/26 08:06:28;;;;;;;8.25;2.45;;;;;;;;;;5029954;28;20100;-68
2022/07/26 08:08:54;;;;;;;2.72;2.30;;;;;;;;;;5032006;28;20060;-72
2022/07/26 08:11:19;;;;;;;3.78;2.33;;;;;;;;;;5032400;28;20115;-72
2022/07/26 08:13:45;;;;;;;6.68;2.67;;;;;;;;;;5030217;28;20052;-72
2022/07/26 08:16:10;;;;;;;3.15;2.85;;;;;;;;;;5031828;28;20054;-74
2022/07/26 08:18:36;;;;;;;5.10;2.88;;;;;;;;;;5031839;28;20496;-71
2022/07/26 08:21:02;;;;;;;4.38;2.75;;;;;;;;;;5034163;28;20105;-72
2022/07/26 08:23:28;;;;;;;6.57;2.92;;;;;;;;;;5030142;28;20052;-73
2022/07/26 08:25:53;;;;;;;6.75;3.05;;;;;;;;;;5031868;28;20048;-74
2022/07/26 08:28:19;;;;;;;5.97;3.72;;;;;;;;;;5029144;28;20131;-74
2022/07/26 08:30:44;;;;;;;7.75;3.30;;;;;;;;;;5032637;28;20040;-73
2022/07/26 08:33:09;;;;;;;6.53;3.70;;;;;;;;;;5030601;28;20053;-71
2022/07/26 08:35:35;;;;;;;5.60;3.38;;;;;;;;;;5034420;28;20048;-73
2022/07/26 08:38:00;;;;;;;5.07;3.92;;;;;;;;;;5035246;28;20144;-73
2022/07/26 08:40:27;;;;;;;6.53;3.40;;;;;;;;;;5024597;28;20042;-71
2022/07/26 08:42:54;;;;;;;3.90;3.53;;;;;;;;;;5034904;28;20040;-72
2022/07/26 08:45:27;;;;;;;6.90;3.80;;;;;;;;;;5036872;28;20060;-71
2022/07/26 08:47:54;;;;;;;13.27;4.05;;;;;;;;;;5031474;28;20061;-69
2022/07/26 08:50:20;;;;;;;6.50;3.17;;;;;;;;;;5026354;28;20044;-70
2022/07/26 08:52:45;;;;;;;5.93;3.30;;;;;;;;;;5034453;28;20499;-72
2022/07/26 08:55:15;;;;;;;7.10;3.70;;;;;;;;;;5036886;28;20128;-72
2022/07/26 08:57:41;;;;;;;6.70;3.15;;;;;;;;;;5027407;28;20094;-72
2022/07/26 09:00:32;;;;;;;7.40;2.92;;;;;;;;;;5034476;28;20064;-73
2022/07/26 09:03:00;;;;;;;3.88;2.50;;;;;;;;;;5031971;28;20096;-73
2022/07/26 09:05:31;;;;;;;5.07;2.20;;;;;;;;;;5036962;28;20063;-71
2022/07/26 09:07:58;;;;;;;5.07;2.30;;;;;;;;;;5029399;28;20544;-73
2022/07/26 09:10:24;;;;;;;3.80;2.40;;;;;;;;;;5031047;28;20145;-71
2022/07/26 09:12:55;;;;;;;4.15;2.30;;;;;;;;;;5031371;28;20132;-72
2022/07/26 09:15:26;;;;;;;2.50;2.30;;;;;;;;;;5038578;28;20105;-72
2022/07/26 09:17:56;;;;;;;2.25;1.70;;;;;;;;;;5040093;28;20107;-72
2022/07/26 09:20:26;;;;;;;3.22;1.80;;;;;;;;;;5029801;28;20045;-74
2022/07/26 09:23:10;;;;;;;4.15;2.20;;;;;;;;;;5037915;28;20061;-73
2022/07/26 09:25:38;;;;;;;2.55;1.90;;;;;;;;;;5025278;28;20048;-72
2022/07/26 09:28:25;;;;;;;2.72;1.90;;;;;;;;;;5032234;28;20053;-72
2022/07/26 09:30:58;;;;;;;4.25;2.15;;;;;;;;;;5033909;28;20099;-72
2022/07/26 09:33:25;;;;;;;5.70;2.30;;;;;;;;;;5026215;28;20076;-71
2022/07/26 09:36:05;;;;;;;7.63;2.20;;;;;;;;;;5026917;28;20068;-72
2022/07/26 09:38:54;;;;;;;4.40;2.60;;;;;;;;;;5037447;28;20049;-70
2022/07/26 09:41:21;;;;;;;3.28;2.10;;;;;;;;;;5031016;28;20087;-72
2022/07/26 09:43:47;;;;;;;2.17;1.80;;;;;;;;;;5030902;28;20049;-72
2022/07/26 09:46:14;;;;;;;2.38;1.98;;;;;;;;;;5026717;28;20038;-72
2022/07/26 09:48:41;;;;;;;2.78;2.10;;;;;;;;;;5039178;28;20521;-72
2022/07/26 09:51:09;;;;;;;2.80;1.80;;;;;;;;;;5038649;28;20044;-72
2022/07/26 09:53:43;;;;;;;4.55;2.22;;;;;;;;;;5039062;28;20175;-72
2022/07/26 09:56:09;;;;;;;7.65;2.00;;;;;;;;;;5030281;28;20053;-73
2022/07/26 09:58:36;;;;;;;4.50;1.90;;;;;;;;;;5035366;28;20095;-75
2022/07/26 10:01:02;;;;;;;4.18;1.45;;;;;;;;;;5030035;28;20054;-75
2022/07/26 10:03:32;;;;;;;1.80;1.50;;;;;;;;;;5038106;28;20159;-73
2022/07/26 10:05:58;;;;;;;1.45;1.35;;;;;;;;;;5032103;28;20055;-75
2022/07/26 10:08:24;;;;;;;3.35;1.52;;;;;;;;;;5023989;28;20049;-74
2022/07/26 10:11:07;;;;;;;2.88;1.60;;;;;;;;;;5026089;28;20064;-74
2022/07/26 10:13:33;;;;;;;1.60;1.50;;;;;;;;;;5033282;28;20091;-75
2022/07/26 10:15:59;;;;;;;2.67;2.22;;;;;;;;;;5032861;28;20056;-74
2022/07/26 10:18:36;;;;;;;4.10;1.52;;;;;;;;;;5033564;28;20510;-74
2022/07/26 10:21:24;;;;;;;2.85;1.50;;;;;;;;;;5031229;28;20049;-71
2022/07/26 10:24:00;;;;;;;3.92;1.23;;;;;;;;;;5028758;28;20084;-71
2022/07/26 10:26:31;;;;;;;1.67;1.50;;;;;;;;;;5039806;28;20064;-74
2022/07/26 10:29:18;;;;;;;3.30;1.70;;;;;;;;;;5038443;28;20144;-73
2022/07/26 10:31:45;;;;;;;2.75;1.52;;;;;;;;;;5023301;28;20059;-70
2022/07/26 10:34:29;;;;;;;3.60;1.83;;;;;;;;;;5037253;28;20136;-71
2022/07/26 10:37:02;;;;;;;1.80;1.60;;;;;;;;;;5023363;28;20048;-71
2022/07/26 10:39:28;;;;;;;5.55;2.00;;;;;;;;;;5023115;28;20139;-74
2022/07/26 10:42:15;;;;;;;4.38;1.70;;;;;;;;;;5027367;28;20048;-71
2022/07/26 10:44:43;;;;;;;1.50;1.40;;;;;;;;;;5023197;28;20407;-71
2022/07/26 10:47:14;;;;;;;2.13;1.52;;;;;;;;;;5037872;28;20098;-72
2022/07/26 10:49:49;;;;;;;2.35;1.83;;;;;;;;;;5030746;28;20049;-72
2022/07/26 10:52:25;;;;;;;2.75;1.65;;;;;;;;;;5021677;28;20128;-72
2022/07/26 10:55:02;;;;;;;3.10;1.88;;;;;;;;;;5038625;28;20053;-71
2022/07/26 10:57:28;;;;;;;2.22;1.90;;;;;;;;;;5022242;28;20084;-71
2022/07/26 10:59:56;;;;;;;2.30;1.60;;;;;;;;;;5038341;28;20037;-72
2022/07/26 11:02:31;;;;;;;1.77;1.48;;;;;;;;;;5035304;28;20049;-71
2022/07/26 11:05:14;;;;;;;2.65;1.65;;;;;;;;;;5024023;28;20168;-72
2022/07/26 11:08:00;;;;;;;2.60;1.40;;;;;;;;;;5028544;28;20138;-72
2022/07/26 11:10:31;;;;;;;2.22;1.48;;;;;;;;;;5042686;28;20415;-73
2022/07/26 11:13:13;;;;;;;3.53;1.67;;;;;;;;;;5041139;28;20052;-71
2022/07/26 11:16:02;;;;;;;3.45;1.65;;;;;;;;;;5036177;28;20096;-70
2022/07/26 11:18:31;;;;;;;3.92;1.88;;;;;;;;;;5038278;28;20510;-71
2022/07/26 11:21:10;;;;;;;1.65;1.55;;;;;;;;;;5038486;28;20144;-71
2022/07/26 11:23:38;;;;;;;3.83;1.40;;;;;;;;;;5030670;28;20053;-70
2022/07/26 11:26:14;;;;;;;1.83;1.20;;;;;;;;;;5023712;28;20099;-70
2022/07/26 11:28:52;;;;;;;2.05;1.20;;;;;;;;;;5037359;28;21011;-71
2022/07/26 11:31:18;;;;;;;1.50;1.40;;;;;;;;;;5041208;28;20140;-72
2022/07/26 11:33:47;;;;;;;2.17;1.50;;;;;;;;;;5041356;28;20160;-72
2022/07/26 11:36:13;;;;;;;1.50;1.40;;;;;;;;;;5023090;28;20072;-73
2022/07/26 11:38:57;;;;;;;2.25;1.05;;;;;;;;;;5039338;28;20041;-71
2022/07/26 11:41:25;;;;;;;3.50;1.38;;;;;;;;;;5028144;28;20990;-70
2022/07/26 11:43:53;;;;;;;0.90;0.90;;;;;;;;;;5034829;28;20053;-72
2022/07/26 11:46:19;;;;;;;3.60;1.13;;;;;;;;;;5027654;28;20047;-70
2022/07/26 11:48:50;;;;;;;2.00;1.08;;;;;;;;;;5027790;28;20053;-70
2022/07/26 11:51:17;;;;;;;1.17;1.10;;;;;;;;;;5031585;28;20064;-69
2022/07/26 11:53:43;;;;;;;1.25;1.15;;;;;;;;;;5036867;28;20049;-72
2022/07/26 11:56:19;;;;;;;1.30;1.20;;;;;;;;;;5036676;28;20115;-72
2022/07/26 11:58:48;;;;;;;1.35;1.08;;;;;;;;;;5033208;28;20106;-72
2022/07/26 12:01:15;;;;;;;2.17;1.27;;;;;;;;;;5037350;28;20041;-73
2022/07/26 12:03:44;;;;;;;2.65;1.27;;;;;;;;;;5040410;28;20040;-74
2022/07/26 12:06:13;;;;;;;2.38;1.40;;;;;;;;;;5041995;28;20041;-72
2022/07/26 12:08:48;;;;;;;2.10;1.20;;;;;;;;;;5032672;28;20056;-74
2022/07/26 12:11:15;;;;;;;1.20;1.10;;;;;;;;;;5035806;28;20136;-71
2022/07/26 12:13:50;;;;;;;3.78;1.05;;;;;;;;;;5026776;28;20050;-72
2022/07/26 12:16:34;;;;;;;1.13;1.02;;;;;;;;;;5039040;28;20056;-73
2022/07/26 12:19:00;;;;;;;2.55;1.40;;;;;;;;;;5033904;28;20057;-71
2022/07/26 12:21:41;;;;;;;7.38;1.35;;;;;;;;;;5037181;28;20064;-74
2022/07/26 12:24:07;;;;;;;3.80;1.30;;;;;;;;;;5032066;28;20053;-75
2022/07/26 12:26:33;;;;;;;3.40;1.20;;;;;;;;;;5031442;28;20590;-73
2022/07/26 12:29:44;;;;;;;1.17;1.08;;;;;;;;;;5027998;28;20045;-72
2022/07/26 12:31:46;;;;;;;1.40;1.17;;;;;;;;;;5022207;28;20127;-69
2022/07/26 12:34:18;;;;;;;2.30;1.20;;;;;;;;;;5036416;28;20083;-71
2022/07/26 12:36:43;;;;;;;5.03;1.10;;;;;;;;;;5030762;28;20041;-71
2022/07/26 12:39:19;;;;;;;2.10;1.30;;;;;;;;;;5030586;28;20481;-71
2022/07/26 12:41:46;;;;;;;2.85;1.27;;;;;;;;;;5030741;28;20114;-70
2022/07/26 12:44:11;;;;;;;2.60;1.25;;;;;;;;;;5036744;28;20055;-70
2022/07/26 12:46:37;;;;;;;8.15;1.33;;;;;;;;;;5039739;28;20052;-70
2022/07/26 12:49:03;;;;;;;2.08;1.23;;;;;;;;;;5036081;28;20056;-69
2022/07/26 12:51:28;;;;;;;2.28;1.30;;;;;;;;;;5030425;28;20037;-71
2022/07/26 12:53:54;;;;;;;3.42;1.67;;;;;;;;;;5029747;28;20103;-75
2022/07/26 12:56:19;;;;;;;1.92;1.20;;;;;;;;;;5034652;28;20045;-76
2022/07/26 12:58:44;;;;;;;2.20;1.27;;;;;;;;;;5033470;28;20091;-74
2022/07/26 13:01:10;;;;;;;1.73;1.20;;;;;;;;;;5034727;28;20049;-75
2022/07/26 13:03:36;;;;;;;2.30;1.17;;;;;;;;;;5030938;28;20067;-74
2022/07/26 13:06:04;;;;;;;1.48;0.93;;;;;;;;;;5033170;28;20037;-74
2022/07/26 13:08:30;;;;;;;1.52;1.30;;;;;;;;;;5030508;28;20120;-74
2022/07/26 13:10:55;;;;;;;1.50;1.40;;;;;;;;;;5029850;28;20203;-73
2022/07/26 13:13:20;;;;;;;1.85;1.20;;;;;;;;;;5024353;28;20059;-72
2022/07/26 13:15:46;;;;;;;1.48;1.23;;;;;;;;;;5027706;28;20175;-74
2022/07/26 13:18:12;;;;;;;2.85;1.15;;;;;;;;;;5031186;28;20140;-75
2022/07/26 13:20:37;;;;;;;2.17;1.23;;;;;;;;;;5033626;28;20052;-72
2022/07/26 13:23:03;;;;;;;1.75;1.40;;;;;;;;;;5028640;28;20053;-75
2022/07/26 13:25:28;;;;;;;1.55;1.20;;;;;;;;;;5024486;28;20504;-73
2022/07/26 13:27:54;;;;;;;2.47;1.20;;;;;;;;;;5030895;28;20048;-75
2022/07/26 13:30:21;;;;;;;4.50;1.60;;;;;;;;;;5031824;28;20044;-73
2022/07/26 13:32:46;;;;;;;1.08;1.08;;;;;;;;;;5027564;28;20055;-74
2022/07/26 13:35:11;;;;;;;4.30;1.40;;;;;;;;;;5024797;28;20033;-73
2022/07/26 13:37:38;;;;;;;1.58;1.40;;;;;;;;;;5023089;28;20095;-74
2022/07/26 13:40:04;;;;;;;1.95;1.45;;;;;;;;;;5023957;28;20085;-74
2022/07/26 13:42:29;;;;;;;1.75;1.40;;;;;;;;;;5026768;28;20049;-73
2022/07/26 13:44:55;;;;;;;2.55;1.20;;;;;;;;;;5025010;28;20049;-73
2022/07/26 13:47:20;;;;;;;2.47;1.20;;;;;;;;;;5029570;28;20114;-73
2022/07/26 13:49:46;;;;;;;1.50;1.40;;;;;;;;;;5022794;28;20910;-73
2022/07/26 13:52:11;;;;;;;3.08;1.27;;;;;;;;;;5025073;28;20049;-75
2022/07/26 13:54:36;;;;;;;2.45;1.33;;;;;;;;;;5030214;28;20048;-72
2022/07/26 13:57:06;;;;;;;5.75;1.50;;;;;;;;;;5026264;28;20041;-72
2022/07/26 13:59:32;;;;;;;2.17;1.35;;;;;;;;;;5025528;28;20045;-74
2022/07/26 14:01:58;;;;;;;3.20;1.30;;;;;;;;;;5032779;28;20106;-74
2022/07/26 14:04:24;;;;;;;2.47;1.40;;;;;;;;;;5031350;28;20064;-73
2022/07/26 14:06:51;;;;;;;1.45;1.35;;;;;;;;;;5033218;28;20140;-71
2022/07/26 14:09:17;;;;;;;1.73;1.20;;;;;;;;;;5033368;28;20140;-72
2022/07/26 14:11:43;;;;;;;4.57;1.45;;;;;;;;;;5029787;28;20053;-73
2022/07/26 14:14:09;;;;;;;1.67;1.23;;;;;;;;;;5037186;28;20063;-73
2022/07/26 14:16:35;;;;;;;1.48;1.27;;;;;;;;;;5029597;28;20049;-73
2022/07/26 14:19:00;;;;;;;3.53;1.40;;;;;;;;;;5031825;28;20055;-73
2022/07/26 14:21:28;;;;;;;2.67;1.30;;;;;;;;;;5028939;28;20068;-72
2022/07/26 14:23:55;;;;;;;2.03;1.10;;;;;;;;;;5028454;28;20053;-72
2022/07/26 14:26:20;;;;;;;4.88;1.38;;;;;;;;;;5025925;28;20065;-74
2022/07/26 14:28:46;;;;;;;2.47;1.40;;;;;;;;;;5026165;28;20041;-74
2022/07/26 14:31:12;;;;;;;4.00;1.65;;;;;;;;;;5025042;28;20134;-73
2022/07/26 14:33:38;;;;;;;1.30;1.20;;;;;;;;;;5026539;28;20061;-73
2022/07/26 14:36:03;;;;;;;3.05;1.15;;;;;;;;;;5023559;28;20389;-75
2022/07/26 14:38:29;;;;;;;2.42;1.20;;;;;;;;;;5032642;28;20076;-74
2022/07/26 14:40:54;;;;;;;1.70;1.20;;;;;;;;;;5034477;28;20053;-73
2022/07/26 14:43:20;;;;;;;2.25;1.40;;;;;;;;;;5030720;28;20045;-73
2022/07/26 14:45:47;;;;;;;1.20;1.10;;;;;;;;;;5033246;28;20557;-75
2022/07/26 14:48:13;;;;;;;3.67;1.30;;;;;;;;;;5032485;28;20140;-73